Time;durP1;ratioP1;P1;durP2;ratioP2;P2;SDS_P1;SDS_P2;PMS_P1;PMS_P2;Temp;Humidity;BMP_temperature;BMP_pressure;BME280_temperature;BME280_humidity;BME280_pressure;Samples;Min_cycle;Max_cycle;Signal;HPM_P1;HPM_P2
2023/11/02 05:38:26;;;;;;;10.00;5.10;;;;;;;6.76;100.00;99867.17;112096;1251;22607;-56
2023/11/02 05:40:53;;;;;;;9.00;4.60;;;;;;;6.82;100.00;99874.34;112871;1239;23209;-55
2023/11/02 05:43:20;;;;;;;6.50;4.20;;;;;;;6.89;100.00;99875.95;112855;1240;23054;-55
2023/11/02 05:45:46;;;;;;;5.40;4.30;;;;;;;6.99;100.00;99886.08;112851;1239;22223;-55
2023/11/02 05:48:13;;;;;;;5.00;4.20;;;;;;;7.06;100.00;99901.59;112053;1239;23425;-55
2023/11/02 05:50:40;;;;;;;5.10;4.20;;;;;;;7.14;100.00;99907.36;112782;1248;22484;-56
2023/11/02 05:53:07;;;;;;;7.30;4.20;;;;;;;7.19;100.00;99914.00;112615;1249;22635;-56
2023/11/02 05:55:34;;;;;;;7.50;4.20;;;;;;;7.26;100.00;99913.88;112814;1237;22471;-56
2023/11/02 05:58:00;;;;;;;5.70;4.10;;;;;;;7.31;100.00;99916.69;112219;1251;22518;-58
2023/11/02 06:00:27;;;;;;;6.20;4.30;;;;;;;7.35;100.00;99918.96;111384;1241;22521;-57
2023/11/02 06:02:54;;;;;;;6.00;4.10;;;;;;;7.36;100.00;99918.11;111216;1242;22573;-56
2023/11/02 06:05:21;;;;;;;6.20;4.30;;;;;;;7.40;100.00;99919.35;111881;1243;22429;-55
2023/11/02 06:07:48;;;;;;;8.20;4.50;;;;;;;7.46;100.00;99913.33;111476;1240;22477;-55
2023/11/02 06:10:14;;;;;;;4.30;3.90;;;;;;;7.52;100.00;99912.84;112340;1248;22439;-57
2023/11/02 06:12:41;;;;;;;6.30;4.40;;;;;;;7.56;100.00;99920.34;112759;1251;23028;-56
2023/11/02 06:15:10;;;;;;;6.30;4.20;;;;;;;7.61;100.00;99917.23;112502;1251;22431;-57
2023/11/02 06:17:43;;;;;;;5.30;4.20;;;;;;;7.65;100.00;99922.64;111199;1251;22633;-56
2023/11/02 06:20:10;;;;;;;6.80;4.80;;;;;;;7.70;100.00;99920.23;111708;1244;23384;-55
2023/11/02 06:22:53;;;;;;;5.70;3.90;;;;;;;7.76;100.00;99927.56;111761;1248;23328;-56
2023/11/02 06:25:27;;;;;;;7.10;4.70;;;;;;;7.83;100.00;99927.77;111370;1251;23399;-56
2023/11/02 06:28:01;;;;;;;6.20;4.00;;;;;;;7.89;100.00;99925.37;111969;1240;22524;-56
2023/11/02 06:30:30;;;;;;;6.20;5.00;;;;;;;7.94;100.00;99924.17;111598;1251;22274;-57
2023/11/02 06:33:24;;;;;;;5.10;4.10;;;;;;;8.01;100.00;99921.09;112284;1251;23096;-57
2023/11/02 06:35:56;;;;;;;5.50;4.30;;;;;;;8.07;100.00;99915.90;111537;1250;22698;-57
2023/11/02 06:38:23;;;;;;;7.20;4.50;;;;;;;8.14;100.00;99913.15;112305;1251;22483;-57
2023/11/02 06:41:05;;;;;;;8.50;4.90;;;;;;;8.19;100.00;99912.13;112614;1239;22383;-56
2023/11/02 06:43:41;;;;;;;5.20;4.20;;;;;;;8.28;100.00;99911.46;112329;1242;22354;-57
2023/11/02 06:46:09;;;;;;;4.90;4.20;;;;;;;8.37;100.00;99917.41;112600;1248;22387;-56
2023/11/02 06:48:35;;;;;;;9.80;5.30;;;;;;;8.45;100.00;99916.05;112557;1241;23069;-55
2023/11/02 06:51:02;;;;;;;5.90;3.90;;;;;;;8.53;100.00;99920.42;112639;1243;22382;-55
2023/11/02 06:53:30;;;;;;;5.00;3.70;;;;;;;8.60;100.00;99922.17;112241;1242;23793;-55
2023/11/02 06:55:57;;;;;;;6.60;3.90;;;;;;;8.69;100.00;99922.55;112290;1242;22815;-55
2023/11/02 06:58:24;;;;;;;5.90;4.30;;;;;;;8.78;100.00;99922.02;112622;1243;22361;-56
2023/11/02 07:00:56;;;;;;;7.90;4.60;;;;;;;8.85;100.00;99921.35;112605;1249;22410;-57
2023/11/02 07:03:27;;;;;;;7.10;5.00;;;;;;;8.91;100.00;99919.45;112153;1250;22971;-56
2023/11/02 07:05:54;;;;;;;5.00;3.80;;;;;;;8.97;100.00;99922.58;112713;1241;23208;-56
2023/11/02 07:08:21;;;;;;;4.50;3.60;;;;;;;9.04;100.00;99923.80;112136;1251;22423;-56
2023/11/02 07:10:47;;;;;;;5.40;4.00;;;;;;;9.11;100.00;99925.52;112792;1243;22407;-56
2023/11/02 07:13:15;;;;;;;4.20;3.30;;;;;;;9.21;100.00;99937.20;112618;1251;22486;-56
2023/11/02 07:15:42;;;;;;;4.50;3.50;;;;;;;9.33;100.00;99945.20;112464;1248;23854;-56
2023/11/02 07:18:11;;;;;;;4.50;3.70;;;;;;;9.44;100.00;99947.27;112559;1242;23552;-58
2023/11/02 07:20:39;;;;;;;4.20;3.60;;;;;;;9.53;100.00;99950.05;111699;1251;22950;-56
2023/11/02 07:23:06;;;;;;;4.80;3.50;;;;;;;9.62;100.00;99954.21;112446;1242;22356;-55
2023/11/02 07:25:36;;;;;;;3.70;2.80;;;;;;;9.72;100.00;99959.61;112344;1241;22488;-57
2023/11/02 07:28:03;;;;;;;3.60;2.80;;;;;;;9.80;100.00;99959.41;111929;1251;22835;-56
2023/11/02 07:30:31;;;;;;;4.90;3.10;;;;;;;9.87;99.61;99956.96;112525;1250;22420;-56
2023/11/02 07:33:02;;;;;;;3.10;2.80;;;;;;;9.95;98.89;99954.67;112224;1244;22456;-57
2023/11/02 07:35:29;;;;;;;5.20;3.60;;;;;;;10.01;97.54;99958.14;112587;1243;23182;-55
2023/11/02 07:37:56;;;;;;;6.70;2.90;;;;;;;10.08;97.41;99956.20;112555;1239;22685;-55
2023/11/02 07:40:23;;;;;;;4.70;3.50;;;;;;;10.16;95.95;99954.59;112551;1251;23101;-55
2023/11/02 07:42:50;;;;;;;4.20;3.00;;;;;;;10.21;95.63;99953.02;112499;1251;22298;-56
2023/11/02 07:45:16;;;;;;;3.20;2.40;;;;;;;10.29;94.92;99956.14;112552;1248;22749;-57
2023/11/02 07:47:43;;;;;;;3.60;2.50;;;;;;;10.37;94.03;99952.80;112493;1251;22438;-56
2023/11/02 07:50:10;;;;;;;4.10;2.80;;;;;;;10.46;93.26;99950.32;112555;1251;22603;-59
2023/11/02 07:52:39;;;;;;;5.00;2.70;;;;;;;10.55;91.63;99945.56;112150;1249;22481;-55
2023/11/02 07:55:08;;;;;;;3.90;2.80;;;;;;;10.62;91.37;99946.75;112431;1251;22264;-59
2023/11/02 07:57:35;;;;;;;5.40;3.30;;;;;;;10.69;92.03;99950.72;112609;1240;22849;-61
2023/11/02 08:00:04;;;;;;;4.00;2.70;;;;;;;10.78;91.37;99946.30;111979;1241;22535;-55
2023/11/02 08:02:42;;;;;;;3.60;2.40;;;;;;;10.86;90.76;99948.86;111849;1251;22836;-55
2023/11/02 08:05:15;;;;;;;2.50;2.10;;;;;;;10.92;88.89;99955.80;112300;1251;22677;-55
2023/11/02 08:07:45;;;;;;;2.30;2.00;;;;;;;10.98;87.34;99959.95;111515;1251;22625;-56
2023/11/02 08:10:20;;;;;;;3.30;2.30;;;;;;;11.01;86.43;99960.80;111995;1251;22565;-56
2023/11/02 08:14:05;;;;;;;5.70;2.10;;;;;;;11.05;86.37;99963.22;111328;1251;23323;-57
2023/11/02 08:17:08;;;;;;;3.30;2.60;;;;;;;11.16;86.02;99961.56;111690;1251;22475;-57
2023/11/02 08:19:46;;;;;;;2.00;1.80;;;;;;;11.23;84.99;99960.64;112319;1251;22246;-56
2023/11/02 08:22:14;;;;;;;2.90;1.90;;;;;;;11.30;84.71;99963.73;112370;1250;22269;-56
2023/11/02 08:24:46;;;;;;;3.50;2.20;;;;;;;11.40;84.63;99956.66;111701;1251;22616;-56
2023/11/02 08:27:56;;;;;;;3.40;2.10;;;;;;;11.51;83.02;99959.69;111470;1251;22504;-59
2023/11/02 08:30:46;;;;;;;4.10;2.30;;;;;;;11.57;82.86;99962.08;111318;1251;22548;-58
2023/11/02 08:33:19;;;;;;;3.00;1.90;;;;;;;11.61;83.29;99958.73;111017;1251;22547;-58
2023/11/02 08:35:55;;;;;;;2.10;1.90;;;;;;;11.64;82.43;99951.36;112359;1251;22601;-57
2023/11/02 08:38:24;;;;;;;4.60;2.30;;;;;;;11.69;83.27;99951.15;111566;1251;22453;-59
2023/11/02 08:40:53;;;;;;;2.80;2.10;;;;;;;11.76;84.12;99951.59;111936;1251;22517;-58
2023/11/02 08:43:20;;;;;;;2.50;2.10;;;;;;;11.83;84.33;99945.95;111980;1251;22619;-58
2023/11/02 08:45:47;;;;;;;3.30;2.10;;;;;;;11.91;84.00;99944.83;112570;1251;22894;-58
2023/11/02 08:48:16;;;;;;;2.40;1.90;;;;;;;11.95;83.48;99947.42;112438;1251;22255;-58
2023/11/02 08:50:47;;;;;;;3.50;2.50;;;;;;;11.96;82.53;99944.95;112198;1245;22340;-57
2023/11/02 08:53:22;;;;;;;3.20;1.90;;;;;;;11.97;81.62;99945.46;112234;1251;23119;-61
2023/11/02 08:55:52;;;;;;;3.60;2.00;;;;;;;11.98;81.82;99940.91;111848;1251;22227;-57
2023/11/02 08:58:22;;;;;;;4.40;1.90;;;;;;;12.00;81.19;99941.92;112515;1251;22683;-57
2023/11/02 09:00:58;;;;;;;4.00;2.30;;;;;;;12.01;81.41;99944.89;111998;1251;22533;-57
2023/11/02 09:03:33;;;;;;;4.50;2.60;;;;;;;12.07;81.55;99935.73;111466;1251;23156;-56
2023/11/02 09:06:04;;;;;;;2.10;1.70;;;;;;;12.11;80.61;99929.73;112103;1251;23029;-57
2023/11/02 09:08:35;;;;;;;4.00;2.10;;;;;;;12.10;79.88;99927.82;111958;1249;22424;-58
2023/11/02 09:11:03;;;;;;;2.90;1.90;;;;;;;12.11;79.94;99921.70;111885;1251;22445;-57
2023/11/02 09:13:31;;;;;;;2.70;2.20;;;;;;;12.12;80.46;99918.72;112010;1251;23373;-57
2023/11/02 09:16:00;;;;;;;2.50;1.60;;;;;;;12.18;80.68;99923.19;111592;1251;22435;-58
2023/11/02 09:18:31;;;;;;;2.80;1.90;;;;;;;12.23;80.15;99913.50;111754;1251;22419;-57
2023/11/02 09:20:59;;;;;;;2.50;1.60;;;;;;;12.27;80.87;99911.88;112072;1243;23220;-57
2023/11/02 09:23:30;;;;;;;6.50;4.70;;;;;;;12.36;81.30;99908.45;111909;1245;22456;-58
2023/11/02 09:25:57;;;;;;;4.00;2.10;;;;;;;12.44;80.83;99904.48;112545;1240;22383;-57
2023/11/02 09:28:23;;;;;;;2.30;1.70;;;;;;;12.53;80.28;99900.86;112582;1251;22300;-58
2023/11/02 09:30:51;;;;;;;2.00;1.60;;;;;;;12.60;78.59;99901.12;112637;1242;22941;-57
2023/11/02 09:33:21;;;;;;;2.60;2.20;;;;;;;12.62;78.77;99896.89;111785;1251;23197;-56
2023/11/02 09:35:57;;;;;;;4.40;2.00;;;;;;;12.66;78.47;99894.20;112583;1246;22477;-57
2023/11/02 09:38:25;;;;;;;1.90;1.60;;;;;;;12.70;78.10;99898.87;112483;1250;22920;-57
2023/11/02 09:40:52;;;;;;;4.00;1.80;;;;;;;12.73;78.41;99890.59;111529;1244;22501;-57
2023/11/02 09:43:20;;;;;;;2.10;1.90;;;;;;;12.82;79.36;99885.38;112193;1245;22181;-56
2023/11/02 09:45:48;;;;;;;2.00;1.50;;;;;;;12.89;77.86;99894.37;112231;1251;23141;-56
2023/11/02 09:48:14;;;;;;;1.80;1.60;;;;;;;12.92;77.08;99884.17;112564;1251;22395;-57
2023/11/02 09:50:42;;;;;;;2.80;1.20;;;;;;;13.01;76.66;99881.92;112534;1251;22473;-57
2023/11/02 09:53:09;;;;;;;1.70;1.50;;;;;;;13.10;76.22;99883.01;112361;1240;22307;-57
2023/11/02 09:55:39;;;;;;;3.10;1.70;;;;;;;13.21;75.53;99883.17;112173;1251;22632;-57
2023/11/02 09:58:09;;;;;;;2.10;1.80;;;;;;;13.39;73.74;99880.61;112367;1251;22169;-55
2023/11/02 10:00:37;;;;;;;2.20;1.50;;;;;;;13.63;73.09;99881.56;112567;1251;22353;-56
2023/11/02 10:03:07;;;;;;;1.40;1.20;;;;;;;13.96;72.81;99876.17;112374;1251;22442;-56
2023/11/02 10:05:34;;;;;;;2.70;1.60;;;;;;;14.32;71.67;99876.63;111770;1251;23156;-57
2023/11/02 10:08:01;;;;;;;2.80;1.60;;;;;;;14.69;70.41;99874.77;112387;1251;22259;-56
2023/11/02 10:10:32;;;;;;;4.00;1.50;;;;;;;15.01;69.31;99871.90;112492;1251;22386;-57
2023/11/02 10:12:59;;;;;;;7.90;2.60;;;;;;;15.28;67.54;99865.75;112220;1251;22367;-57
2023/11/02 10:15:26;;;;;;;6.00;2.80;;;;;;;15.46;66.23;99864.95;112267;1251;22427;-57
2023/11/02 10:26:37;;;;;;;1.70;0.90;;;;;;;16.72;64.43;99861.30;112326;1250;23033;-56
2023/11/02 10:30:05;;;;;;;2.00;1.30;;;;;;;17.25;61.42;99868.73;112277;1251;22236;-57
2023/11/02 10:33:30;;;;;;;4.70;1.20;;;;;;;17.64;60.21;99872.27;112051;1244;23532;-58
2023/11/02 10:35:57;;;;;;;1.20;0.90;;;;;;;17.75;57.98;99876.35;112297;1251;22789;-57
2023/11/02 10:38:24;;;;;;;2.20;1.10;;;;;;;17.85;58.17;99877.39;112334;1251;22947;-58
2023/11/02 10:40:51;;;;;;;1.80;1.10;;;;;;;18.05;56.47;99877.55;112537;1250;22386;-58
2023/11/02 10:43:21;;;;;;;1.10;1.00;;;;;;;18.29;54.03;99875.03;112475;1251;22396;-58
2023/11/02 10:45:49;;;;;;;1.50;1.30;;;;;;;18.44;51.49;99874.98;112456;1251;22393;-58
2023/11/02 10:48:19;;;;;;;2.50;1.20;;;;;;;18.46;51.38;99871.02;112463;1251;22514;-56
2023/11/02 10:50:47;;;;;;;1.20;1.10;;;;;;;18.49;50.78;99866.30;112644;1251;22389;-57
2023/11/02 10:53:21;;;;;;;3.00;1.00;;;;;;;18.24;51.57;99866.05;112667;1251;22276;-56
2023/11/02 10:55:48;;;;;;;2.00;1.50;;;;;;;18.13;52.97;99867.89;112400;1251;22928;-57
2023/11/02 10:58:15;;;;;;;1.10;1.00;;;;;;;18.43;52.66;99864.96;112481;1251;23229;-58
2023/11/02 11:00:42;;;;;;;2.20;1.70;;;;;;;18.78;50.77;99861.66;112447;1251;22174;-57
2023/11/02 11:03:10;;;;;;;1.40;1.10;;;;;;;18.90;50.80;99856.40;112452;1251;22403;-56
2023/11/02 11:05:37;;;;;;;1.90;1.50;;;;;;;18.83;49.77;99857.05;112643;1251;22800;-56
2023/11/02 11:08:07;;;;;;;1.40;1.10;;;;;;;18.59;50.70;99856.76;112566;1251;22400;-56
2023/11/02 11:10:33;;;;;;;2.30;1.60;;;;;;;18.51;51.31;99852.11;112301;1251;22897;-57
2023/11/02 11:13:00;;;;;;;1.20;1.00;;;;;;;18.40;50.35;99852.02;112288;1251;22787;-57
2023/11/02 11:15:31;;;;;;;2.00;1.00;;;;;;;17.85;49.90;99855.33;111626;1251;22903;-57
2023/11/02 11:17:58;;;;;;;1.60;1.30;;;;;;;17.14;51.82;99858.52;112428;1251;23115;-58
2023/11/02 11:20:25;;;;;;;1.40;1.30;;;;;;;16.63;52.22;99858.04;112346;1251;23573;-58
2023/11/02 11:22:52;;;;;;;1.70;1.40;;;;;;;16.50;52.81;99861.96;112379;1250;22269;-56
2023/11/02 11:25:19;;;;;;;2.90;1.40;;;;;;;16.62;53.34;99858.77;112568;1251;23180;-54
2023/11/02 11:27:46;;;;;;;3.00;2.20;;;;;;;16.54;52.48;99858.85;112574;1251;22391;-55
2023/11/02 11:30:22;;;;;;;2.10;1.20;;;;;;;16.13;51.55;99862.02;112499;1251;22310;-55
2023/11/02 11:32:49;;;;;;;1.10;1.10;;;;;;;15.62;52.53;99862.59;112635;1251;22404;-56
2023/11/02 11:35:17;;;;;;;1.80;1.10;;;;;;;15.23;53.64;99862.91;112646;1251;22840;-55
2023/11/02 11:37:57;;;;;;;2.30;1.20;;;;;;;14.90;54.96;99864.64;112642;1241;22384;-55
2023/11/02 11:40:23;;;;;;;2.80;1.10;;;;;;;14.63;56.44;99867.72;112616;1251;22265;-55
2023/11/02 11:43:16;;;;;;;1.60;1.20;;;;;;;14.45;57.82;99867.08;112594;1251;22237;-54
2023/11/02 11:45:45;;;;;;;2.70;1.50;;;;;;;14.32;56.91;99864.72;112612;1250;22421;-54
2023/11/02 11:48:36;;;;;;;1.70;1.40;;;;;;;14.29;56.18;99860.75;112673;1251;22315;-56
2023/11/02 11:51:32;;;;;;;3.40;1.40;;;;;;;14.49;55.73;99858.03;112677;1251;23349;-57
2023/11/02 11:54:14;;;;;;;3.20;1.40;;;;;;;14.75;53.81;99852.36;112663;1250;22723;-57
2023/11/02 11:56:46;;;;;;;2.00;1.30;;;;;;;14.93;54.45;99853.14;112677;1250;22373;-55
2023/11/02 11:59:12;;;;;;;2.90;1.60;;;;;;;15.10;54.72;99855.34;112585;1251;22335;-55
2023/11/02 12:01:39;;;;;;;2.50;1.60;;;;;;;15.15;53.89;99858.38;112324;1251;23357;-55
2023/11/02 12:04:07;;;;;;;1.50;1.40;;;;;;;15.04;53.97;99857.07;112008;1251;22750;-54
2023/11/02 12:06:39;;;;;;;3.00;1.70;;;;;;;14.90;54.52;99857.44;112276;1248;22472;-56
2023/11/02 12:09:12;;;;;;;3.00;1.70;;;;;;;14.80;55.17;99858.18;112126;1251;22280;-55
2023/11/02 12:11:39;;;;;;;4.80;1.60;;;;;;;14.63;55.39;99860.70;112422;1251;22723;-55
2023/11/02 12:14:19;;;;;;;2.40;1.80;;;;;;;14.40;55.99;99861.91;112276;1242;22648;-55
2023/11/02 12:16:51;;;;;;;4.10;2.20;;;;;;;14.21;57.02;99864.43;112354;1251;22296;-56
2023/11/02 12:19:18;;;;;;;2.20;1.20;;;;;;;14.06;57.39;99868.95;112250;1249;22647;-55
2023/11/02 12:21:55;;;;;;;1.80;1.60;;;;;;;13.98;58.31;99869.48;112200;1249;22936;-55
2023/11/02 12:24:22;;;;;;;2.20;1.80;;;;;;;13.90;58.39;99873.67;112228;1252;23288;-55
2023/11/02 12:26:50;;;;;;;2.00;1.60;;;;;;;13.84;58.51;99873.44;112245;1252;22459;-55
2023/11/02 12:29:17;;;;;;;2.70;1.70;;;;;;;13.80;58.66;99877.38;112302;1252;23691;-55
2023/11/02 12:31:44;;;;;;;3.40;1.80;;;;;;;13.81;59.49;99881.21;112351;1252;22646;-55
2023/11/02 12:34:12;;;;;;;2.80;1.70;;;;;;;13.83;59.70;99879.95;112364;1252;22397;-56
2023/11/02 12:36:39;;;;;;;4.60;1.70;;;;;;;13.81;59.98;99878.95;112527;1252;22471;-55
2023/11/02 12:39:10;;;;;;;1.70;1.30;;;;;;;13.78;60.84;99882.14;112496;1252;22373;-55
2023/11/02 12:41:38;;;;;;;4.80;1.50;;;;;;;13.75;61.01;99879.94;112513;1251;23104;-55
2023/11/02 12:44:09;;;;;;;4.90;1.80;;;;;;;13.71;61.13;99876.33;112519;1251;22378;-56
2023/11/02 12:46:48;;;;;;;1.60;1.50;;;;;;;13.67;61.01;99875.70;112490;1252;22234;-54
2023/11/02 12:49:21;;;;;;;4.50;3.30;;;;;;;13.61;61.43;99877.05;112476;1252;22750;-56
2023/11/02 12:52:01;;;;;;;7.30;2.40;;;;;;;13.57;62.13;99880.63;112554;1252;23532;-55
2023/11/02 12:54:30;;;;;;;4.00;3.00;;;;;;;13.56;62.73;99881.50;111744;1251;23281;-55
2023/11/02 12:57:06;;;;;;;3.60;2.50;;;;;;;13.56;63.14;99881.15;112085;1252;22396;-55
2023/11/02 12:59:37;;;;;;;4.50;3.10;;;;;;;13.54;63.38;99882.07;111965;1252;22421;-55
2023/11/02 13:02:06;;;;;;;2.80;2.40;;;;;;;13.51;63.89;99884.23;112561;1250;22937;-55
2023/11/02 13:04:54;;;;;;;1.70;1.60;;;;;;;13.47;63.74;99886.23;112521;1252;23110;-56
2023/11/02 13:07:25;;;;;;;2.60;1.80;;;;;;;13.43;62.94;99883.86;112562;1252;23273;-56
2023/11/02 13:10:16;;;;;;;2.00;1.70;;;;;;;13.40;63.25;99879.73;112291;1252;23890;-56
2023/11/02 13:12:44;;;;;;;2.20;2.00;;;;;;;13.38;64.00;99872.38;112106;1252;23235;-55
2023/11/02 13:15:12;;;;;;;3.60;1.90;;;;;;;13.34;63.99;99871.41;112552;1252;22258;-55
2023/11/02 13:17:46;;;;;;;2.20;1.60;;;;;;;13.28;63.97;99871.85;112577;1252;22886;-55
2023/11/02 13:20:15;;;;;;;2.40;1.50;;;;;;;13.22;64.38;99870.57;112560;1252;22388;-55
2023/11/02 13:22:47;;;;;;;2.10;1.50;;;;;;;13.22;64.33;99861.80;112499;1252;23278;-56
2023/11/02 13:25:17;;;;;;;2.70;1.80;;;;;;;13.39;63.58;99860.28;112538;1252;23155;-54
2023/11/02 13:27:45;;;;;;;2.60;1.70;;;;;;;13.60;62.79;99860.58;112520;1252;22392;-55
2023/11/02 13:30:14;;;;;;;1.70;1.30;;;;;;;13.61;62.86;99857.60;112568;1252;22390;-56
2023/11/02 13:32:41;;;;;;;1.50;1.30;;;;;;;13.52;63.08;99856.55;112589;1246;22394;-55
2023/11/02 13:35:08;;;;;;;2.70;1.70;;;;;;;13.42;63.30;99858.30;112586;1241;22358;-56
2023/11/02 13:37:35;;;;;;;6.20;1.70;;;;;;;13.32;63.98;99855.16;112573;1252;23071;-55
2023/11/02 13:40:09;;;;;;;2.30;1.60;;;;;;;13.25;64.63;99856.33;112626;1252;22468;-56
2023/11/02 13:42:37;;;;;;;1.40;1.30;;;;;;;13.18;64.65;99844.88;112470;1252;23010;-56
2023/11/02 13:45:06;;;;;;;1.60;1.50;;;;;;;13.09;64.44;99838.91;112568;1251;23204;-56
2023/11/02 13:47:36;;;;;;;3.50;2.60;;;;;;;12.99;64.58;99841.87;112625;1252;22408;-56
2023/11/02 13:50:09;;;;;;;7.10;5.60;;;;;;;12.89;64.94;99840.81;112395;1252;22606;-56
2023/11/02 13:52:36;;;;;;;11.40;6.20;;;;;;;12.78;65.23;99836.44;112597;1252;22513;-55
2023/11/02 13:55:05;;;;;;;6.40;4.20;;;;;;;12.69;65.74;99833.27;112644;1241;22485;-55
2023/11/02 13:57:32;;;;;;;5.60;4.30;;;;;;;12.61;66.18;99828.66;112652;1241;22419;-55
2023/11/02 14:00:01;;;;;;;9.10;5.70;;;;;;;12.53;66.71;99834.90;112502;1252;22283;-55
2023/11/02 14:02:37;;;;;;;7.90;4.60;;;;;;;12.44;67.33;99838.38;111409;1252;146834;-54
2023/11/02 14:05:07;;;;;;;4.10;3.50;;;;;;;12.35;67.84;99838.34;111173;1252;24138;-55
2023/11/02 14:07:34;;;;;;;5.80;4.60;;;;;;;12.27;68.39;99838.10;110862;1252;22521;-54
2023/11/02 14:10:01;;;;;;;9.40;5.10;;;;;;;12.20;69.08;99834.69;112695;1252;22351;-54
2023/11/02 14:12:28;;;;;;;4.50;3.80;;;;;;;12.13;69.44;99839.34;112708;1252;22429;-56
2023/11/02 14:14:56;;;;;;;10.30;7.10;;;;;;;12.07;70.02;99846.24;111428;1252;22596;-56
2023/11/02 14:17:23;;;;;;;5.70;4.50;;;;;;;12.02;70.44;99850.15;110881;1240;22498;-55
2023/11/02 14:19:50;;;;;;;4.10;2.70;;;;;;;11.96;70.66;99849.52;110796;1252;22402;-55
2023/11/02 14:22:18;;;;;;;3.00;2.50;;;;;;;11.91;71.03;99849.06;111805;1241;24336;-55
2023/11/02 14:24:48;;;;;;;9.00;3.70;;;;;;;11.85;71.37;99848.63;112729;1252;22332;-57
2023/11/02 14:27:15;;;;;;;4.50;3.10;;;;;;;11.79;71.56;99847.78;111728;1252;22566;-56
2023/11/02 14:29:44;;;;;;;4.60;2.90;;;;;;;11.74;71.63;99847.67;111692;1244;22538;-56
2023/11/02 14:32:13;;;;;;;5.10;3.20;;;;;;;11.68;72.07;99848.96;111081;1252;22486;-55
2023/11/02 14:34:40;;;;;;;4.40;3.50;;;;;;;11.62;72.31;99849.20;110351;1249;22546;-56
2023/11/02 14:37:07;;;;;;;5.00;3.00;;;;;;;11.56;72.64;99853.80;110346;1252;22526;-55
2023/11/02 14:39:34;;;;;;;3.60;2.80;;;;;;;11.49;73.06;99847.94;109886;1252;23808;-55
